Kezdőlap
METAR-TAF:

METAR-TAF

Repülőterek :

Boa Vista, Roraima, Brazília

földrajzi szélesség: 02-50N, földrajzi hosszúság: 060-42W, magasság: 84 m

Jelenlegi meteorológiai megfigyelések

A jelentés 24 perccel ezelõtt készült, 05:00 UTC
Északnyugati szél 4 kt
Hőmérséklet 24°C
Páratartalom 89%
Légköri nyomás 1010 hPa
Látótávolság 10 km, vagy több
Kevés felhő 1500 lábon

METAR: SBBV 230500Z 31004KT 9999 FEW015 24/22 Q1010

Idő: 01:24 (05:24 UTC)

Előrejelzés

A jelentés 7 órával és 24 perccel ezelõtt készült, 22:00 UTC
Az előrejelzés 23-én 00 óra UTC és 23-én 24 óra UTC között érvényes
Keleti szél 4 kt
Látótávolság 10 km, vagy több
Szórványos felhőzet 2000 lábon
Kevés felhő 2500 lábon, Tornyos gomolyfelhő.
Valószínűség 30%
23-én 09 óra UTC és 23-én 14 óra UTC között
Szakadozott felhőzet 1000 lábon

TAF: SBBV 222200Z 2300/2324 10004KT 9999 SCT020 FEW025TCU TN26/2308Z T X35/2318Z PROB30 2309/2314 BKN010 RMK PDU

Meteorológiai megfigyelések és előrejelzések több, mint 4000 repülőtéren (METAR és TAF jelentéseket).

A térképen piros és sárga pontok jelzik az elérhető meteorológiai állomásokat.

Mozgassa az egeret a pont fölött, hogy megjelenjen az állomás neve.

Azután kattintson az időjárási megfigyelések és előrejelzések megtekintéséhez.

A térkép megváltoztatása: kattintson a fekete keresztel jelölt zöld gombra ráközelítéshez, a vonallal jelölt zöld gombra távolításhoz, vagy a zöld nyilakra a szomszédos térképek eléréséhez.


METAR-TAF: